sensor_id;sensor_type;location;lat;lon;timestamp;pressure;altitude;pressure_sealevel;temperature;humidity
5872;BME280;2962;51.312;7.378;2023-02-18T00:01:57;98045.41;;;8.27;100.00
5872;BME280;2962;51.312;7.378;2023-02-18T00:04:22;98039.06;;;8.23;100.00
5872;BME280;2962;51.312;7.378;2023-02-18T00:06:48;98039.03;;;8.11;100.00
5872;BME280;2962;51.312;7.378;2023-02-18T00:09:13;98041.88;;;8.14;100.00
5872;BME280;2962;51.312;7.378;2023-02-18T00:11:38;98028.88;;;8.07;100.00
5872;BME280;2962;51.312;7.378;2023-02-18T00:14:07;98053.31;;;8.20;100.00
5872;BME280;2962;51.312;7.378;2023-02-18T00:16:34;98045.28;;;8.11;100.00
5872;BME280;2962;51.312;7.378;2023-02-18T00:19:02;98048.53;;;8.17;100.00
5872;BME280;2962;51.312;7.378;2023-02-18T00:21:27;98050.56;;;8.07;100.00
5872;BME280;2962;51.312;7.378;2023-02-18T00:23:53;98059.06;;;8.18;100.00
5872;BME280;2962;51.312;7.378;2023-02-18T00:26:18;98040.03;;;8.06;100.00
5872;BME280;2962;51.312;7.378;2023-02-18T00:28:44;98039.13;;;8.02;100.00
5872;BME280;2962;51.312;7.378;2023-02-18T00:31:13;98059.94;;;8.10;100.00
5872;BME280;2962;51.312;7.378;2023-02-18T00:33:39;98025.19;;;7.91;100.00
5872;BME280;2962;51.312;7.378;2023-02-18T00:36:08;98045.84;;;8.17;100.00
5872;BME280;2962;51.312;7.378;2023-02-18T00:38:34;98022.19;;;8.17;100.00
5872;BME280;2962;51.312;7.378;2023-02-18T00:41:00;98021.16;;;8.10;100.00
5872;BME280;2962;51.312;7.378;2023-02-18T00:43:26;98019.25;;;8.22;100.00
5872;BME280;2962;51.312;7.378;2023-02-18T00:45:51;98023.09;;;8.21;100.00
5872;BME280;2962;51.312;7.378;2023-02-18T00:48:16;98017.56;;;8.18;100.00
5872;BME280;2962;51.312;7.378;2023-02-18T00:50:42;98011.69;;;8.16;100.00
5872;BME280;2962;51.312;7.378;2023-02-18T00:53:07;97990.28;;;8.02;100.00
5872;BME280;2962;51.312;7.378;2023-02-18T00:55:38;97999.56;;;8.01;100.00
5872;BME280;2962;51.312;7.378;2023-02-18T00:58:03;97992.34;;;8.05;100.00
5872;BME280;2962;51.312;7.378;2023-02-18T01:00:29;98014.59;;;8.11;100.00
5872;BME280;2962;51.312;7.378;2023-02-18T01:02:54;98017.22;;;8.19;100.00
5872;BME280;2962;51.312;7.378;2023-02-18T01:05:20;98004.56;;;8.11;100.00
5872;BME280;2962;51.312;7.378;2023-02-18T01:07:45;97998.44;;;8.14;100.00
5872;BME280;2962;51.312;7.378;2023-02-18T01:10:11;98000.47;;;8.17;100.00
5872;BME280;2962;51.312;7.378;2023-02-18T01:12:36;97997.09;;;8.08;100.00
5872;BME280;2962;51.312;7.378;2023-02-18T01:15:03;97989.16;;;8.03;100.00
5872;BME280;2962;51.312;7.378;2023-02-18T01:17:29;97986.13;;;8.04;100.00
5872;BME280;2962;51.312;7.378;2023-02-18T01:19:55;97993.91;;;8.06;100.00
5872;BME280;2962;51.312;7.378;2023-02-18T01:22:20;97974.78;;;8.02;100.00
5872;BME280;2962;51.312;7.378;2023-02-18T01:24:45;97981.84;;;8.03;100.00
5872;BME280;2962;51.312;7.378;2023-02-18T01:27:10;98002.06;;;8.06;100.00
5872;BME280;2962;51.312;7.378;2023-02-18T01:29:36;98003.88;;;8.14;100.00
5872;BME280;2962;51.312;7.378;2023-02-18T01:32:01;97993.91;;;8.06;100.00
5872;BME280;2962;51.312;7.378;2023-02-18T01:34:26;97995.50;;;8.07;100.00
5872;BME280;2962;51.312;7.378;2023-02-18T01:36:52;97988.84;;;8.04;100.00
5872;BME280;2962;51.312;7.378;2023-02-18T01:39:21;97977.63;;;8.06;100.00
5872;BME280;2962;51.312;7.378;2023-02-18T01:41:46;97977.31;;;8.07;100.00
5872;BME280;2962;51.312;7.378;2023-02-18T01:44:24;97982.16;;;8.14;100.00
5872;BME280;2962;51.312;7.378;2023-02-18T01:46:50;97965.19;;;8.05;100.00
5872;BME280;2962;51.312;7.378;2023-02-18T01:49:19;97984.75;;;8.11;100.00
5872;BME280;2962;51.312;7.378;2023-02-18T01:51:48;97985.44;;;8.07;100.00
5872;BME280;2962;51.312;7.378;2023-02-18T01:54:28;97971.06;;;8.07;100.00
5872;BME280;2962;51.312;7.378;2023-02-18T01:57:00;97963.03;;;8.11;100.00
5872;BME280;2962;51.312;7.378;2023-02-18T01:59:30;97954.56;;;8.00;100.00
5872;BME280;2962;51.312;7.378;2023-02-18T02:01:57;97953.19;;;7.94;100.00
5872;BME280;2962;51.312;7.378;2023-02-18T02:04:23;97962.25;;;7.86;100.00
5872;BME280;2962;51.312;7.378;2023-02-18T02:06:48;97944.94;;;8.02;100.00
5872;BME280;2962;51.312;7.378;2023-02-18T02:09:16;97967.44;;;8.03;100.00
5872;BME280;2962;51.312;7.378;2023-02-18T02:14:33;97970.63;;;8.05;100.00
5872;BME280;2962;51.312;7.378;2023-02-18T02:17:03;97934.22;;;8.06;100.00
5872;BME280;2962;51.312;7.378;2023-02-18T02:19:50;97968.47;;;7.98;100.00
5872;BME280;2962;51.312;7.378;2023-02-18T02:25:15;97951.63;;;7.93;100.00
5872;BME280;2962;51.312;7.378;2023-02-18T02:30:41;97956.72;;;8.06;100.00
5872;BME280;2962;51.312;7.378;2023-02-18T02:36:00;97951.97;;;8.03;100.00
5872;BME280;2962;51.312;7.378;2023-02-18T02:38:54;97937.84;;;7.98;100.00
5872;BME280;2962;51.312;7.378;2023-02-18T02:41:42;97932.16;;;8.03;100.00
5872;BME280;2962;51.312;7.378;2023-02-18T02:44:20;97941.00;;;8.00;100.00
5872;BME280;2962;51.312;7.378;2023-02-18T02:46:56;97937.94;;;8.01;100.00
5872;BME280;2962;51.312;7.378;2023-02-18T02:52:16;97918.84;;;7.98;100.00
5872;BME280;2962;51.312;7.378;2023-02-18T02:54:44;97917.03;;;8.02;100.00
5872;BME280;2962;51.312;7.378;2023-02-18T02:59:43;97909.78;;;7.94;100.00
5872;BME280;2962;51.312;7.378;2023-02-18T03:13:17;97910.59;;;7.94;100.00
5872;BME280;2962;51.312;7.378;2023-02-18T03:15:49;97906.16;;;8.02;100.00
5872;BME280;2962;51.312;7.378;2023-02-18T03:18:33;97904.34;;;8.06;100.00
5872;BME280;2962;51.312;7.378;2023-02-18T03:21:05;97899.41;;;8.08;100.00
5872;BME280;2962;51.312;7.378;2023-02-18T03:23:37;97893.97;;;8.08;100.00
5872;BME280;2962;51.312;7.378;2023-02-18T03:26:07;97879.81;;;8.02;100.00
5872;BME280;2962;51.312;7.378;2023-02-18T03:28:34;97874.06;;;8.04;100.00
5872;BME280;2962;51.312;7.378;2023-02-18T03:31:21;97875.06;;;7.99;100.00
5872;BME280;2962;51.312;7.378;2023-02-18T03:33:54;97869.78;;;7.91;100.00
5872;BME280;2962;51.312;7.378;2023-02-18T03:36:22;97857.47;;;7.93;100.00
5872;BME280;2962;51.312;7.378;2023-02-18T03:38:53;97843.91;;;7.93;100.00
5872;BME280;2962;51.312;7.378;2023-02-18T03:41:20;97853.28;;;7.96;100.00
5872;BME280;2962;51.312;7.378;2023-02-18T03:43:52;97857.78;;;8.04;100.00
5872;BME280;2962;51.312;7.378;2023-02-18T03:46:20;97862.97;;;8.09;100.00
5872;BME280;2962;51.312;7.378;2023-02-18T03:48:45;97848.41;;;8.01;100.00
5872;BME280;2962;51.312;7.378;2023-02-18T03:51:11;97857.31;;;8.02;100.00
5872;BME280;2962;51.312;7.378;2023-02-18T03:53:36;97843.44;;;8.03;100.00
5872;BME280;2962;51.312;7.378;2023-02-18T03:56:01;97829.31;;;7.98;100.00
5872;BME280;2962;51.312;7.378;2023-02-18T03:58:27;97846.81;;;8.00;100.00
5872;BME280;2962;51.312;7.378;2023-02-18T04:00:52;97839.47;;;8.01;100.00
5872;BME280;2962;51.312;7.378;2023-02-18T04:03:17;97833.94;;;7.97;100.00
5872;BME280;2962;51.312;7.378;2023-02-18T04:05:43;97821.06;;;7.94;100.00
5872;BME280;2962;51.312;7.378;2023-02-18T04:08:08;97820.72;;;7.96;100.00
5872;BME280;2962;51.312;7.378;2023-02-18T04:10:33;97809.06;;;7.95;100.00
5872;BME280;2962;51.312;7.378;2023-02-18T04:12:59;97824.13;;;7.93;100.00
5872;BME280;2962;51.312;7.378;2023-02-18T04:15:24;97813.91;;;8.02;100.00
5872;BME280;2962;51.312;7.378;2023-02-18T04:17:49;97833.38;;;8.04;100.00
5872;BME280;2962;51.312;7.378;2023-02-18T04:20:15;97805.56;;;7.95;100.00
5872;BME280;2962;51.312;7.378;2023-02-18T04:22:40;97806.91;;;8.01;100.00
5872;BME280;2962;51.312;7.378;2023-02-18T04:25:06;97802.50;;;8.08;100.00
5872;BME280;2962;51.312;7.378;2023-02-18T04:27:31;97799.78;;;8.08;100.00
5872;BME280;2962;51.312;7.378;2023-02-18T04:29:57;97805.88;;;8.05;100.00
5872;BME280;2962;51.312;7.378;2023-02-18T04:32:22;97810.31;;;7.98;100.00
5872;BME280;2962;51.312;7.378;2023-02-18T04:34:47;97797.50;;;8.11;100.00
5872;BME280;2962;51.312;7.378;2023-02-18T04:37:12;97794.38;;;7.96;100.00
5872;BME280;2962;51.312;7.378;2023-02-18T04:39:38;97794.13;;;8.01;100.00
5872;BME280;2962;51.312;7.378;2023-02-18T04:42:03;97789.38;;;7.98;100.00
5872;BME280;2962;51.312;7.378;2023-02-18T04:44:36;97797.63;;;8.02;100.00
5872;BME280;2962;51.312;7.378;2023-02-18T04:47:02;97793.09;;;8.06;100.00
5872;BME280;2962;51.312;7.378;2023-02-18T04:49:28;97787.25;;;8.04;100.00
5872;BME280;2962;51.312;7.378;2023-02-18T04:51:53;97783.03;;;8.06;100.00
5872;BME280;2962;51.312;7.378;2023-02-18T04:54:18;97774.31;;;8.13;100.00
5872;BME280;2962;51.312;7.378;2023-02-18T04:56:43;97751.50;;;8.02;100.00
5872;BME280;2962;51.312;7.378;2023-02-18T04:59:10;97775.50;;;8.00;100.00
5872;BME280;2962;51.312;7.378;2023-02-18T05:01:36;97762.78;;;8.16;100.00
5872;BME280;2962;51.312;7.378;2023-02-18T05:04:01;97765.75;;;8.11;100.00
5872;BME280;2962;51.312;7.378;2023-02-18T05:06:26;97758.97;;;8.05;100.00
5872;BME280;2962;51.312;7.378;2023-02-18T05:08:51;97737.72;;;7.95;100.00
5872;BME280;2962;51.312;7.378;2023-02-18T05:11:17;97753.44;;;8.01;100.00
5872;BME280;2962;51.312;7.378;2023-02-18T05:13:42;97761.94;;;8.00;100.00
5872;BME280;2962;51.312;7.378;2023-02-18T05:16:07;97777.50;;;8.03;100.00
5872;BME280;2962;51.312;7.378;2023-02-18T05:18:32;97746.75;;;7.99;100.00
5872;BME280;2962;51.312;7.378;2023-02-18T05:20:58;97730.28;;;7.92;100.00
5872;BME280;2962;51.312;7.378;2023-02-18T05:23:23;97739.75;;;7.98;100.00
5872;BME280;2962;51.312;7.378;2023-02-18T05:25:50;97723.94;;;7.88;100.00
5872;BME280;2962;51.312;7.378;2023-02-18T05:28:15;97726.00;;;7.91;100.00
5872;BME280;2962;51.312;7.378;2023-02-18T05:30:40;97716.50;;;7.97;100.00
5872;BME280;2962;51.312;7.378;2023-02-18T05:33:06;97705.44;;;7.90;100.00
5872;BME280;2962;51.312;7.378;2023-02-18T05:35:31;97725.31;;;7.94;100.00
5872;BME280;2962;51.312;7.378;2023-02-18T05:37:56;97721.81;;;7.93;100.00
5872;BME280;2962;51.312;7.378;2023-02-18T05:40:21;97713.09;;;7.88;100.00
5872;BME280;2962;51.312;7.378;2023-02-18T05:42:47;97689.41;;;7.85;100.00
5872;BME280;2962;51.312;7.378;2023-02-18T05:45:12;97701.56;;;7.91;100.00
5872;BME280;2962;51.312;7.378;2023-02-18T05:47:37;97694.31;;;7.95;100.00
5872;BME280;2962;51.312;7.378;2023-02-18T05:50:03;97691.31;;;7.84;100.00
5872;BME280;2962;51.312;7.378;2023-02-18T05:52:29;97698.22;;;7.81;100.00
5872;BME280;2962;51.312;7.378;2023-02-18T05:54:54;97697.28;;;7.90;100.00
5872;BME280;2962;51.312;7.378;2023-02-18T05:57:20;97684.41;;;7.87;100.00
5872;BME280;2962;51.312;7.378;2023-02-18T05:59:45;97682.84;;;7.86;100.00
5872;BME280;2962;51.312;7.378;2023-02-18T06:02:10;97680.56;;;7.88;100.00
5872;BME280;2962;51.312;7.378;2023-02-18T06:04:36;97682.59;;;7.91;100.00
5872;BME280;2962;51.312;7.378;2023-02-18T06:07:01;97659.66;;;7.88;100.00
5872;BME280;2962;51.312;7.378;2023-02-18T06:09:26;97684.09;;;7.76;100.00
5872;BME280;2962;51.312;7.378;2023-02-18T06:11:52;97667.69;;;7.85;100.00
5872;BME280;2962;51.312;7.378;2023-02-18T06:14:18;97710.38;;;7.88;100.00
5872;BME280;2962;51.312;7.378;2023-02-18T06:16:44;97672.34;;;7.84;100.00
5872;BME280;2962;51.312;7.378;2023-02-18T06:19:09;97652.44;;;7.80;100.00
5872;BME280;2962;51.312;7.378;2023-02-18T06:21:34;97671.09;;;7.81;100.00
5872;BME280;2962;51.312;7.378;2023-02-18T06:24:00;97680.13;;;7.86;100.00
5872;BME280;2962;51.312;7.378;2023-02-18T06:26:25;97681.78;;;7.90;100.00
5872;BME280;2962;51.312;7.378;2023-02-18T06:28:51;97669.06;;;7.78;100.00
5872;BME280;2962;51.312;7.378;2023-02-18T06:31:16;97676.00;;;7.92;100.00
5872;BME280;2962;51.312;7.378;2023-02-18T06:33:42;97684.63;;;7.94;100.00
5872;BME280;2962;51.312;7.378;2023-02-18T06:36:08;97662.28;;;7.85;100.00
5872;BME280;2962;51.312;7.378;2023-02-18T06:38:42;97655.59;;;7.82;100.00
5872;BME280;2962;51.312;7.378;2023-02-18T06:41:09;97655.25;;;7.83;100.00
5872;BME280;2962;51.312;7.378;2023-02-18T06:43:35;97675.47;;;7.86;100.00
5872;BME280;2962;51.312;7.378;2023-02-18T06:46:01;97658.16;;;7.91;100.00
5872;BME280;2962;51.312;7.378;2023-02-18T06:48:26;97670.06;;;7.86;100.00
5872;BME280;2962;51.312;7.378;2023-02-18T06:50:52;97674.69;;;7.86;100.00
5872;BME280;2962;51.312;7.378;2023-02-18T06:53:17;97672.91;;;7.77;100.00
5872;BME280;2962;51.312;7.378;2023-02-18T06:55:43;97674.44;;;7.91;100.00
5872;BME280;2962;51.312;7.378;2023-02-18T06:58:09;97675.84;;;7.85;100.00
5872;BME280;2962;51.312;7.378;2023-02-18T07:00:35;97669.16;;;7.82;100.00
5872;BME280;2962;51.312;7.378;2023-02-18T07:03:01;97656.66;;;7.77;100.00
5872;BME280;2962;51.312;7.378;2023-02-18T07:05:27;97678.78;;;7.79;100.00
5872;BME280;2962;51.312;7.378;2023-02-18T07:07:52;97670.53;;;7.76;100.00
5872;BME280;2962;51.312;7.378;2023-02-18T07:10:17;97666.81;;;7.80;100.00
5872;BME280;2962;51.312;7.378;2023-02-18T07:12:43;97653.03;;;7.73;100.00
5872;BME280;2962;51.312;7.378;2023-02-18T07:15:09;97682.88;;;7.73;100.00
5872;BME280;2962;51.312;7.378;2023-02-18T07:17:34;97680.50;;;7.72;100.00
5872;BME280;2962;51.312;7.378;2023-02-18T07:19:59;97686.53;;;7.65;100.00
5872;BME280;2962;51.312;7.378;2023-02-18T07:22:25;97713.63;;;7.65;100.00
5872;BME280;2962;51.312;7.378;2023-02-18T07:24:51;97629.84;;;7.48;100.00
5872;BME280;2962;51.312;7.378;2023-02-18T07:27:17;97639.00;;;7.43;100.00
5872;BME280;2962;51.312;7.378;2023-02-18T07:29:42;97654.66;;;7.62;100.00
5872;BME280;2962;51.312;7.378;2023-02-18T07:32:11;97627.22;;;7.51;100.00
5872;BME280;2962;51.312;7.378;2023-02-18T07:34:36;97647.88;;;7.56;100.00
5872;BME280;2962;51.312;7.378;2023-02-18T07:37:02;97644.84;;;7.45;100.00
5872;BME280;2962;51.312;7.378;2023-02-18T07:39:33;97651.94;;;7.62;100.00
5872;BME280;2962;51.312;7.378;2023-02-18T07:41:58;97650.44;;;7.65;100.00
5872;BME280;2962;51.312;7.378;2023-02-18T07:44:24;97660.19;;;7.66;100.00
5872;BME280;2962;51.312;7.378;2023-02-18T07:46:51;97663.69;;;7.66;100.00
5872;BME280;2962;51.312;7.378;2023-02-18T07:49:17;97678.59;;;7.60;100.00
5872;BME280;2962;51.312;7.378;2023-02-18T07:51:42;97679.38;;;7.61;100.00
5872;BME280;2962;51.312;7.378;2023-02-18T07:54:07;97669.34;;;7.61;100.00
5872;BME280;2962;51.312;7.378;2023-02-18T07:56:33;97661.34;;;7.52;100.00
5872;BME280;2962;51.312;7.378;2023-02-18T07:58:58;97683.13;;;7.56;100.00
5872;BME280;2962;51.312;7.378;2023-02-18T08:01:23;97669.03;;;7.50;100.00
5872;BME280;2962;51.312;7.378;2023-02-18T08:03:48;97685.41;;;7.54;100.00
5872;BME280;2962;51.312;7.378;2023-02-18T08:06:27;97691.03;;;7.49;100.00
5872;BME280;2962;51.312;7.378;2023-02-18T08:08:54;97685.84;;;7.56;100.00
5872;BME280;2962;51.312;7.378;2023-02-18T08:11:19;97685.72;;;7.52;100.00
5872;BME280;2962;51.312;7.378;2023-02-18T08:13:44;97696.03;;;7.47;100.00
5872;BME280;2962;51.312;7.378;2023-02-18T08:16:10;97681.00;;;7.37;100.00
5872;BME280;2962;51.312;7.378;2023-02-18T08:18:35;97703.03;;;7.48;100.00
5872;BME280;2962;51.312;7.378;2023-02-18T08:21:00;97723.34;;;7.42;100.00
5872;BME280;2962;51.312;7.378;2023-02-18T08:23:25;97701.13;;;7.36;100.00
5872;BME280;2962;51.312;7.378;2023-02-18T08:25:52;97716.59;;;7.36;100.00
5872;BME280;2962;51.312;7.378;2023-02-18T08:28:19;97710.28;;;7.31;100.00
5872;BME280;2962;51.312;7.378;2023-02-18T08:30:46;97714.22;;;7.34;100.00
5872;BME280;2962;51.312;7.378;2023-02-18T08:33:13;97703.72;;;7.32;100.00
5872;BME280;2962;51.312;7.378;2023-02-18T08:35:39;97746.84;;;7.38;100.00
5872;BME280;2962;51.312;7.378;2023-02-18T08:38:04;97710.06;;;7.24;100.00
5872;BME280;2962;51.312;7.378;2023-02-18T08:40:30;97704.53;;;7.21;100.00
5872;BME280;2962;51.312;7.378;2023-02-18T08:42:55;97716.81;;;7.18;100.00
5872;BME280;2962;51.312;7.378;2023-02-18T08:45:21;97691.66;;;7.05;100.00
5872;BME280;2962;51.312;7.378;2023-02-18T08:47:46;97746.06;;;7.13;100.00
5872;BME280;2962;51.312;7.378;2023-02-18T08:50:12;97718.88;;;7.09;100.00
5872;BME280;2962;51.312;7.378;2023-02-18T08:52:37;97729.94;;;7.16;100.00
5872;BME280;2962;51.312;7.378;2023-02-18T08:55:04;97732.41;;;7.21;100.00
5872;BME280;2962;51.312;7.378;2023-02-18T08:57:29;97746.19;;;7.04;100.00
5872;BME280;2962;51.312;7.378;2023-02-18T08:59:54;97729.03;;;7.12;100.00
5872;BME280;2962;51.312;7.378;2023-02-18T09:02:19;97732.41;;;7.09;100.00
5872;BME280;2962;51.312;7.378;2023-02-18T09:04:45;97749.22;;;7.15;100.00
5872;BME280;2962;51.312;7.378;2023-02-18T09:07:10;97714.59;;;6.96;100.00
5872;BME280;2962;51.312;7.378;2023-02-18T09:09:35;97701.25;;;6.91;100.00
5872;BME280;2962;51.312;7.378;2023-02-18T09:12:01;97708.59;;;7.02;100.00
5872;BME280;2962;51.312;7.378;2023-02-18T09:14:26;97709.38;;;6.91;100.00
5872;BME280;2962;51.312;7.378;2023-02-18T09:16:51;97715.25;;;6.93;100.00
5872;BME280;2962;51.312;7.378;2023-02-18T09:19:17;97704.06;;;6.82;100.00
5872;BME280;2962;51.312;7.378;2023-02-18T09:21:43;97725.84;;;6.85;100.00
5872;BME280;2962;51.312;7.378;2023-02-18T09:24:08;97708.69;;;6.81;100.00
5872;BME280;2962;51.312;7.378;2023-02-18T09:26:34;97702.25;;;6.74;100.00
5872;BME280;2962;51.312;7.378;2023-02-18T09:29:00;97694.44;;;6.72;100.00
5872;BME280;2962;51.312;7.378;2023-02-18T09:31:26;97699.00;;;6.80;100.00
5872;BME280;2962;51.312;7.378;2023-02-18T09:33:58;97728.31;;;6.78;100.00
5872;BME280;2962;51.312;7.378;2023-02-18T09:36:24;97703.81;;;6.75;100.00
5872;BME280;2962;51.312;7.378;2023-02-18T09:38:50;97689.50;;;6.74;100.00
5872;BME280;2962;51.312;7.378;2023-02-18T09:43:50;97698.53;;;6.78;100.00
5872;BME280;2962;51.312;7.378;2023-02-18T09:46:27;97710.50;;;6.77;100.00
5872;BME280;2962;51.312;7.378;2023-02-18T09:48:54;97710.25;;;6.70;100.00
5872;BME280;2962;51.312;7.378;2023-02-18T09:51:19;97699.88;;;6.72;100.00
5872;BME280;2962;51.312;7.378;2023-02-18T09:53:45;97692.88;;;6.71;100.00
5872;BME280;2962;51.312;7.378;2023-02-18T09:56:14;97714.00;;;6.78;100.00
5872;BME280;2962;51.312;7.378;2023-02-18T09:58:41;97713.53;;;6.76;100.00
5872;BME280;2962;51.312;7.378;2023-02-18T10:01:27;97700.88;;;6.80;100.00
5872;BME280;2962;51.312;7.378;2023-02-18T10:03:55;97688.59;;;6.82;100.00
5872;BME280;2962;51.312;7.378;2023-02-18T10:06:25;97707.56;;;6.82;100.00
5872;BME280;2962;51.312;7.378;2023-02-18T10:08:53;97666.16;;;6.82;100.00
5872;BME280;2962;51.312;7.378;2023-02-18T10:11:34;97701.00;;;6.83;100.00
5872;BME280;2962;51.312;7.378;2023-02-18T10:14:02;97702.50;;;6.81;100.00
5872;BME280;2962;51.312;7.378;2023-02-18T10:16:29;97690.41;;;6.78;100.00
5872;BME280;2962;51.312;7.378;2023-02-18T10:19:00;97697.59;;;6.62;100.00
5872;BME280;2962;51.312;7.378;2023-02-18T10:21:32;97706.41;;;6.71;100.00
5872;BME280;2962;51.312;7.378;2023-02-18T10:24:05;97720.31;;;6.70;100.00
5872;BME280;2962;51.312;7.378;2023-02-18T10:26:34;97688.13;;;6.68;100.00
5872;BME280;2962;51.312;7.378;2023-02-18T10:29:01;97694.44;;;6.72;100.00
5872;BME280;2962;51.312;7.378;2023-02-18T10:31:33;97675.28;;;6.65;100.00
5872;BME280;2962;51.312;7.378;2023-02-18T10:34:14;97694.25;;;6.65;100.00
5872;BME280;2962;51.312;7.378;2023-02-18T10:36:43;97663.31;;;6.66;100.00
5872;BME280;2962;51.312;7.378;2023-02-18T10:39:37;97686.13;;;6.65;100.00
5872;BME280;2962;51.312;7.378;2023-02-18T10:42:26;97702.44;;;6.69;100.00
5872;BME280;2962;51.312;7.378;2023-02-18T10:45:03;97688.13;;;6.68;100.00
5872;BME280;2962;51.312;7.378;2023-02-18T10:50:21;97665.91;;;6.50;100.00
5872;BME280;2962;51.312;7.378;2023-02-18T10:52:51;97701.78;;;6.72;100.00
5872;BME280;2962;51.312;7.378;2023-02-18T10:55:36;97702.13;;;6.70;100.00
5872;BME280;2962;51.312;7.378;2023-02-18T10:58:03;97696.97;;;6.77;100.00
5872;BME280;2962;51.312;7.378;2023-02-18T11:00:34;97693.59;;;6.80;100.00
5872;BME280;2962;51.312;7.378;2023-02-18T11:03:15;97691.53;;;6.90;100.00
5872;BME280;2962;51.312;7.378;2023-02-18T11:05:42;97706.28;;;6.68;100.00
5872;BME280;2962;51.312;7.378;2023-02-18T11:08:20;97701.72;;;6.80;100.00
5872;BME280;2962;51.312;7.378;2023-02-18T11:10:47;97705.75;;;6.87;100.00
5872;BME280;2962;51.312;7.378;2023-02-18T11:13:15;97707.44;;;6.91;100.00
5872;BME280;2962;51.312;7.378;2023-02-18T11:15:58;97709.25;;;6.99;100.00
5872;BME280;2962;51.312;7.378;2023-02-18T11:20:55;97731.03;;;7.03;100.00
5872;BME280;2962;51.312;7.378;2023-02-18T11:23:21;97722.69;;;6.83;100.00
5872;BME280;2962;51.312;7.378;2023-02-18T11:25:56;97716.72;;;6.90;100.00
5872;BME280;2962;51.312;7.378;2023-02-18T11:28:29;97708.16;;;6.88;100.00
5872;BME280;2962;51.312;7.378;2023-02-18T11:30:58;97726.22;;;6.96;100.00
5872;BME280;2962;51.312;7.378;2023-02-18T11:33:38;97728.78;;;6.93;100.00
5872;BME280;2962;51.312;7.378;2023-02-18T11:36:17;97706.78;;;6.82;100.00
5872;BME280;2962;51.312;7.378;2023-02-18T11:38:46;97748.44;;;6.90;100.00
5872;BME280;2962;51.312;7.378;2023-02-18T11:41:16;97715.69;;;7.07;100.00
5872;BME280;2962;51.312;7.378;2023-02-18T11:43:46;97721.56;;;7.09;100.00
5872;BME280;2962;51.312;7.378;2023-02-18T11:46:18;97721.69;;;7.13;100.00
5872;BME280;2962;51.312;7.378;2023-02-18T11:48:44;97706.91;;;7.10;100.00
5872;BME280;2962;51.312;7.378;2023-02-18T11:51:32;97711.41;;;7.18;100.00
5872;BME280;2962;51.312;7.378;2023-02-18T11:54:05;97706.69;;;7.15;100.00
5872;BME280;2962;51.312;7.378;2023-02-18T11:56:54;97712.53;;;7.29;100.00
5872;BME280;2962;51.312;7.378;2023-02-18T11:59:19;97704.41;;;7.29;100.00
5872;BME280;2962;51.312;7.378;2023-02-18T12:01:48;97696.38;;;7.33;100.00
5872;BME280;2962;51.312;7.378;2023-02-18T12:04:17;97718.97;;;7.37;100.00
5872;BME280;2962;51.312;7.378;2023-02-18T12:09:38;97703.28;;;7.18;100.00
5872;BME280;2962;51.312;7.378;2023-02-18T12:12:22;97735.59;;;7.23;100.00
5872;BME280;2962;51.312;7.378;2023-02-18T12:14:49;97713.78;;;7.07;100.00
5872;BME280;2962;51.312;7.378;2023-02-18T12:17:41;97705.06;;;7.26;100.00
5872;BME280;2962;51.312;7.378;2023-02-18T12:20:36;97711.22;;;7.11;100.00
5872;BME280;2962;51.312;7.378;2023-02-18T12:23:22;97713.00;;;7.19;100.00
5872;BME280;2962;51.312;7.378;2023-02-18T12:31:39;97735.25;;;7.25;100.00
5872;BME280;2962;51.312;7.378;2023-02-18T12:34:28;97707.78;;;7.26;100.00
5872;BME280;2962;51.312;7.378;2023-02-18T12:37:27;97718.19;;;7.24;100.00
5872;BME280;2962;51.312;7.378;2023-02-18T12:40:26;97714.03;;;7.27;100.00
5872;BME280;2962;51.312;7.378;2023-02-18T12:43:01;97722.25;;;7.30;100.00
5872;BME280;2962;51.312;7.378;2023-02-18T12:48:21;97728.34;;;7.27;100.00
5872;BME280;2962;51.312;7.378;2023-02-18T12:59:02;97709.47;;;7.43;100.00
5872;BME280;2962;51.312;7.378;2023-02-18T13:07:09;97721.56;;;7.33;100.00
5872;BME280;2962;51.312;7.378;2023-02-18T13:15:15;97708.47;;;7.36;100.00
5872;BME280;2962;51.312;7.378;2023-02-18T13:17:42;97743.72;;;7.36;100.00
5872;BME280;2962;51.312;7.378;2023-02-18T13:20:18;97732.88;;;7.36;100.00
5872;BME280;2962;51.312;7.378;2023-02-18T13:22:46;97726.53;;;7.44;100.00
5872;BME280;2962;51.312;7.378;2023-02-18T13:25:14;97709.59;;;7.47;100.00
5872;BME280;2962;51.312;7.378;2023-02-18T13:28:03;97716.47;;;7.44;100.00
5872;BME280;2962;51.312;7.378;2023-02-18T13:33:21;97717.72;;;7.47;100.00
5872;BME280;2962;51.312;7.378;2023-02-18T13:35:57;97697.19;;;7.46;100.00
5872;BME280;2962;51.312;7.378;2023-02-18T13:41:07;97706.63;;;7.52;100.00
5872;BME280;2962;51.312;7.378;2023-02-18T13:43:33;97715.25;;;7.54;100.00
5872;BME280;2962;51.312;7.378;2023-02-18T13:46:21;97703.94;;;7.52;100.00
5872;BME280;2962;51.312;7.378;2023-02-18T13:51:28;97713.63;;;7.53;100.00
5872;BME280;2962;51.312;7.378;2023-02-18T13:54:00;97719.16;;;7.56;100.00
5872;BME280;2962;51.312;7.378;2023-02-18T13:56:29;97691.94;;;7.65;100.00
5872;BME280;2962;51.312;7.378;2023-02-18T13:59:00;97712.03;;;7.64;100.00
5872;BME280;2962;51.312;7.378;2023-02-18T14:01:41;97707.31;;;7.61;100.00
5872;BME280;2962;51.312;7.378;2023-02-18T14:09:47;97719.41;;;7.51;100.00
5872;BME280;2962;51.312;7.378;2023-02-18T14:12:38;97699.63;;;7.63;100.00
5872;BME280;2962;51.312;7.378;2023-02-18T14:17:42;97713.31;;;7.54;100.00
5872;BME280;2962;51.312;7.378;2023-02-18T14:22:44;97702.78;;;7.65;100.00
5872;BME280;2962;51.312;7.378;2023-02-18T14:27:38;97700.78;;;7.50;100.00
5872;BME280;2962;51.312;7.378;2023-02-18T14:30:07;97693.66;;;7.45;100.00
5872;BME280;2962;51.312;7.378;2023-02-18T14:32:40;97691.75;;;7.46;100.00
5872;BME280;2962;51.312;7.378;2023-02-18T14:43:43;97725.59;;;7.64;100.00
5872;BME280;2962;51.312;7.378;2023-02-18T14:51:55;97724.03;;;7.63;100.00
5872;BME280;2962;51.312;7.378;2023-02-18T14:54:24;97713.53;;;7.62;100.00
5872;BME280;2962;51.312;7.378;2023-02-18T14:56:54;97724.13;;;7.67;100.00
5872;BME280;2962;51.312;7.378;2023-02-18T14:59:21;97699.03;;;7.70;100.00
5872;BME280;2962;51.312;7.378;2023-02-18T15:01:47;97698.16;;;7.66;100.00
5872;BME280;2962;51.312;7.378;2023-02-18T15:04:14;97703.44;;;7.74;100.00
5872;BME280;2962;51.312;7.378;2023-02-18T15:06:40;97728.09;;;7.69;100.00
5872;BME280;2962;51.312;7.378;2023-02-18T15:09:18;97711.81;;;7.69;100.00
5872;BME280;2962;51.312;7.378;2023-02-18T15:14:26;97711.09;;;7.85;100.00
5872;BME280;2962;51.312;7.378;2023-02-18T15:16:53;97709.31;;;7.76;100.00